sensor_id;sensor_type;location;lat;lon;timestamp;pressure;altitude;pressure_sealevel;temperature;humidity
49315;BME280;36672;50.710;12.498;2023-02-03T00:00:26;99204.97;;;1.52;88.95
49315;BME280;36672;50.710;12.498;2023-02-03T00:02:53;99190.22;;;1.48;88.61
49315;BME280;36672;50.710;12.498;2023-02-03T00:05:19;99207.88;;;1.60;89.03
49315;BME280;36672;50.710;12.498;2023-02-03T00:07:44;99198.66;;;1.64;89.21
49315;BME280;36672;50.710;12.498;2023-02-03T00:10:10;99197.91;;;1.62;89.04
49315;BME280;36672;50.710;12.498;2023-02-03T00:12:35;99187.28;;;1.62;89.14
49315;BME280;36672;50.710;12.498;2023-02-03T00:15:01;99185.59;;;1.61;89.28
49315;BME280;36672;50.710;12.498;2023-02-03T00:17:26;99180.28;;;1.61;89.48
49315;BME280;36672;50.710;12.498;2023-02-03T00:19:51;99181.72;;;1.65;89.84
49315;BME280;36672;50.710;12.498;2023-02-03T00:22:17;99153.41;;;1.53;89.66
49315;BME280;36672;50.710;12.498;2023-02-03T00:24:42;99173.84;;;1.63;89.95
49315;BME280;36672;50.710;12.498;2023-02-03T00:27:08;99168.38;;;1.65;89.96
49315;BME280;36672;50.710;12.498;2023-02-03T00:29:33;99142.38;;;1.57;90.45
49315;BME280;36672;50.710;12.498;2023-02-03T00:31:58;99148.56;;;1.58;91.01
49315;BME280;36672;50.710;12.498;2023-02-03T00:34:28;99145.38;;;1.64;91.40
49315;BME280;36672;50.710;12.498;2023-02-03T00:36:54;99119.38;;;1.56;91.45
49315;BME280;36672;50.710;12.498;2023-02-03T00:39:20;99129.03;;;1.69;91.54
49315;BME280;36672;50.710;12.498;2023-02-03T00:41:45;99110.03;;;1.62;91.58
49315;BME280;36672;50.710;12.498;2023-02-03T00:44:11;99126.69;;;1.75;91.42
49315;BME280;36672;50.710;12.498;2023-02-03T00:46:36;99121.94;;;1.79;91.75
49315;BME280;36672;50.710;12.498;2023-02-03T00:49:03;99121.34;;;1.75;92.19
49315;BME280;36672;50.710;12.498;2023-02-03T00:51:28;99105.25;;;1.77;92.07
49315;BME280;36672;50.710;12.498;2023-02-03T00:53:53;99073.09;;;1.69;92.02
49315;BME280;36672;50.710;12.498;2023-02-03T00:56:19;99104.22;;;1.89;92.16
49315;BME280;36672;50.710;12.498;2023-02-03T00:58:44;99096.22;;;1.89;92.21
49315;BME280;36672;50.710;12.498;2023-02-03T01:01:10;99096.53;;;1.96;92.50
49315;BME280;36672;50.710;12.498;2023-02-03T01:03:36;99087.84;;;1.94;92.52
49315;BME280;36672;50.710;12.498;2023-02-03T01:06:14;99102.53;;;2.09;92.72
49315;BME280;36672;50.710;12.498;2023-02-03T01:08:42;99104.25;;;2.20;92.73
49315;BME280;36672;50.710;12.498;2023-02-03T01:11:13;99096.84;;;2.24;92.53
49315;BME280;36672;50.710;12.498;2023-02-03T01:13:39;99085.78;;;2.28;92.69
49315;BME280;36672;50.710;12.498;2023-02-03T01:16:09;99074.53;;;2.25;92.68
49315;BME280;36672;50.710;12.498;2023-02-03T01:18:35;99057.28;;;2.29;92.67
49315;BME280;36672;50.710;12.498;2023-02-03T01:21:09;99075.59;;;2.43;92.54
49315;BME280;36672;50.710;12.498;2023-02-03T01:23:35;99059.19;;;2.48;92.69
49315;BME280;36672;50.710;12.498;2023-02-03T01:26:07;99055.16;;;2.54;92.66
49315;BME280;36672;50.710;12.498;2023-02-03T01:28:32;99052.47;;;2.54;92.84
49315;BME280;36672;50.710;12.498;2023-02-03T01:31:08;99052.09;;;2.58;92.89
49315;BME280;36672;50.710;12.498;2023-02-03T01:33:34;99047.19;;;2.64;93.37
49315;BME280;36672;50.710;12.498;2023-02-03T01:36:00;99030.84;;;2.57;93.27
49315;BME280;36672;50.710;12.498;2023-02-03T01:38:25;99051.84;;;2.71;93.04
49315;BME280;36672;50.710;12.498;2023-02-03T01:40:50;99034.25;;;2.59;93.22
49315;BME280;36672;50.710;12.498;2023-02-03T01:45:56;99033.28;;;2.70;93.25
49315;BME280;36672;50.710;12.498;2023-02-03T01:48:21;99038.50;;;2.81;93.13
49315;BME280;36672;50.710;12.498;2023-02-03T01:50:47;99032.03;;;2.84;93.13
49315;BME280;36672;50.710;12.498;2023-02-03T01:53:12;99004.50;;;2.73;93.22
49315;BME280;36672;50.710;12.498;2023-02-03T01:55:42;99021.69;;;2.90;93.70
49315;BME280;36672;50.710;12.498;2023-02-03T01:58:42;99020.41;;;2.94;93.51
49315;BME280;36672;50.710;12.498;2023-02-03T02:01:00;99026.72;;;2.93;93.74
49315;BME280;36672;50.710;12.498;2023-02-03T02:04:02;99015.91;;;2.95;93.74
49315;BME280;36672;50.710;12.498;2023-02-03T02:06:27;98988.78;;;2.90;94.13
49315;BME280;36672;50.710;12.498;2023-02-03T02:08:54;98993.88;;;3.03;93.70
49315;BME280;36672;50.710;12.498;2023-02-03T02:11:21;98998.09;;;3.05;93.98
49315;BME280;36672;50.710;12.498;2023-02-03T02:13:49;99011.16;;;3.08;93.48
49315;BME280;36672;50.710;12.498;2023-02-03T02:16:33;99006.50;;;3.01;93.70
49315;BME280;36672;50.710;12.498;2023-02-03T02:19:15;99019.72;;;3.12;93.55
49315;BME280;36672;50.710;12.498;2023-02-03T02:22:19;99024.09;;;3.13;93.79
49315;BME280;36672;50.710;12.498;2023-02-03T02:32:53;99002.72;;;3.23;94.06
49315;BME280;36672;50.710;12.498;2023-02-03T02:35:37;98997.25;;;3.24;94.04
49315;BME280;36672;50.710;12.498;2023-02-03T02:43:29;98999.38;;;3.31;93.92
49315;BME280;36672;50.710;12.498;2023-02-03T02:46:01;98981.63;;;3.20;94.21
49315;BME280;36672;50.710;12.498;2023-02-03T02:51:06;98976.88;;;3.33;94.18
49315;BME280;36672;50.710;12.498;2023-02-03T02:53:36;98984.28;;;3.39;94.51
49315;BME280;36672;50.710;12.498;2023-02-03T02:56:06;98966.03;;;3.35;94.01
49315;BME280;36672;50.710;12.498;2023-02-03T02:58:34;98970.09;;;3.39;93.91
49315;BME280;36672;50.710;12.498;2023-02-03T03:01:01;98983.03;;;3.43;93.90
49315;BME280;36672;50.710;12.498;2023-02-03T03:03:28;98973.34;;;3.42;94.33
49315;BME280;36672;50.710;12.498;2023-02-03T03:06:01;98970.94;;;3.39;94.06
49315;BME280;36672;50.710;12.498;2023-02-03T03:08:45;98966.44;;;3.40;93.86
49315;BME280;36672;50.710;12.498;2023-02-03T03:11:12;98959.13;;;3.42;93.93
49315;BME280;36672;50.710;12.498;2023-02-03T03:13:41;98959.00;;;3.43;93.62
49315;BME280;36672;50.710;12.498;2023-02-03T03:16:09;98946.78;;;3.41;94.12
49315;BME280;36672;50.710;12.498;2023-02-03T03:18:43;98972.19;;;3.55;93.83
49315;BME280;36672;50.710;12.498;2023-02-03T03:21:13;98956.16;;;3.45;93.72
49315;BME280;36672;50.710;12.498;2023-02-03T03:23:42;98975.13;;;3.62;93.85
49315;BME280;36672;50.710;12.498;2023-02-03T03:26:21;98974.28;;;3.61;93.85
49315;BME280;36672;50.710;12.498;2023-02-03T03:29:00;98950.53;;;3.48;93.94
49315;BME280;36672;50.710;12.498;2023-02-03T03:31:30;98975.13;;;3.62;93.41
49315;BME280;36672;50.710;12.498;2023-02-03T03:33:55;98946.47;;;3.54;93.53
49315;BME280;36672;50.710;12.498;2023-02-03T03:36:35;98956.28;;;3.63;93.93
49315;BME280;36672;50.710;12.498;2023-02-03T03:39:10;98949.94;;;3.64;93.47
49315;BME280;36672;50.710;12.498;2023-02-03T03:41:42;98946.84;;;3.69;93.82
49315;BME280;36672;50.710;12.498;2023-02-03T03:44:14;98940.38;;;3.62;93.31
49315;BME280;36672;50.710;12.498;2023-02-03T03:46:49;98944.72;;;3.72;93.20
49315;BME280;36672;50.710;12.498;2023-02-03T03:49:17;98940.78;;;3.77;92.77
49315;BME280;36672;50.710;12.498;2023-02-03T03:51:54;98938.25;;;3.75;93.16
49315;BME280;36672;50.710;12.498;2023-02-03T03:54:23;98943.13;;;3.80;92.74
49315;BME280;36672;50.710;12.498;2023-02-03T03:57:08;98944.53;;;3.84;93.16
49315;BME280;36672;50.710;12.498;2023-02-03T03:59:40;98945.38;;;3.84;92.65
49315;BME280;36672;50.710;12.498;2023-02-03T04:02:08;98928.22;;;3.87;92.67
49315;BME280;36672;50.710;12.498;2023-02-03T04:04:36;98907.09;;;3.84;92.69
49315;BME280;36672;50.710;12.498;2023-02-03T04:07:03;98908.06;;;3.92;92.75
49315;BME280;36672;50.710;12.498;2023-02-03T04:09:28;98891.78;;;3.86;92.57
49315;BME280;36672;50.710;12.498;2023-02-03T04:11:53;98903.09;;;3.98;92.86
49315;BME280;36672;50.710;12.498;2023-02-03T04:14:31;98900.16;;;4.01;92.55
49315;BME280;36672;50.710;12.498;2023-02-03T04:16:57;98888.16;;;4.05;92.51
49315;BME280;36672;50.710;12.498;2023-02-03T04:19:23;98877.31;;;4.06;92.73
49315;BME280;36672;50.710;12.498;2023-02-03T04:21:49;98867.91;;;4.02;92.97
49315;BME280;36672;50.710;12.498;2023-02-03T04:24:15;98888.41;;;4.12;92.68
49315;BME280;36672;50.710;12.498;2023-02-03T04:26:40;98872.81;;;4.07;92.61
49315;BME280;36672;50.710;12.498;2023-02-03T04:29:06;98878.94;;;4.17;92.50
49315;BME280;36672;50.710;12.498;2023-02-03T04:31:31;98870.31;;;4.05;92.01
49315;BME280;36672;50.710;12.498;2023-02-03T04:33:56;98870.00;;;4.08;92.32
49315;BME280;36672;50.710;12.498;2023-02-03T04:36:22;98890.63;;;4.16;92.00
49315;BME280;36672;50.710;12.498;2023-02-03T04:38:48;98884.88;;;4.11;91.98
49315;BME280;36672;50.710;12.498;2023-02-03T04:41:13;98905.53;;;4.19;91.81
49315;BME280;36672;50.710;12.498;2023-02-03T04:43:39;98904.41;;;4.21;91.85
49315;BME280;36672;50.710;12.498;2023-02-03T04:46:04;98905.78;;;4.25;91.94
49315;BME280;36672;50.710;12.498;2023-02-03T04:48:30;98895.16;;;4.16;92.19
49315;BME280;36672;50.710;12.498;2023-02-03T04:51:00;98886.03;;;4.08;91.31
49315;BME280;36672;50.710;12.498;2023-02-03T04:53:26;98899.91;;;4.22;91.38
49315;BME280;36672;50.710;12.498;2023-02-03T04:55:51;98901.72;;;4.21;91.68
49315;BME280;36672;50.710;12.498;2023-02-03T04:58:17;98907.38;;;4.18;91.18
49315;BME280;36672;50.710;12.498;2023-02-03T05:00:42;98919.31;;;4.24;91.64
49315;BME280;36672;50.710;12.498;2023-02-03T05:03:12;98905.16;;;4.14;91.27
49315;BME280;36672;50.710;12.498;2023-02-03T05:05:38;98894.16;;;4.17;91.04
49315;BME280;36672;50.710;12.498;2023-02-03T05:08:04;98909.00;;;4.29;91.08
49315;BME280;36672;50.710;12.498;2023-02-03T05:10:29;98886.81;;;4.19;91.12
49315;BME280;36672;50.710;12.498;2023-02-03T05:12:55;98889.06;;;4.23;91.38
49315;BME280;36672;50.710;12.498;2023-02-03T05:15:20;98895.19;;;4.34;90.73
49315;BME280;36672;50.710;12.498;2023-02-03T05:17:46;98879.72;;;4.28;90.73
49315;BME280;36672;50.710;12.498;2023-02-03T05:20:11;98878.13;;;4.35;90.57
49315;BME280;36672;50.710;12.498;2023-02-03T05:22:36;98876.28;;;4.35;90.88
49315;BME280;36672;50.710;12.498;2023-02-03T05:25:03;98857.19;;;4.30;90.57
49315;BME280;36672;50.710;12.498;2023-02-03T05:27:29;98867.59;;;4.33;90.86
49315;BME280;36672;50.710;12.498;2023-02-03T05:29:54;98850.47;;;4.26;90.66
49315;BME280;36672;50.710;12.498;2023-02-03T05:32:19;98862.09;;;4.35;90.97
49315;BME280;36672;50.710;12.498;2023-02-03T05:34:45;98840.31;;;4.30;90.88
49315;BME280;36672;50.710;12.498;2023-02-03T05:37:10;98841.84;;;4.32;90.53
49315;BME280;36672;50.710;12.498;2023-02-03T05:39:35;98864.44;;;4.38;90.86
49315;BME280;36672;50.710;12.498;2023-02-03T05:42:01;98849.69;;;4.34;90.88
49315;BME280;36672;50.710;12.498;2023-02-03T05:44:28;98848.63;;;4.27;90.69
49315;BME280;36672;50.710;12.498;2023-02-03T05:46:56;98844.94;;;4.28;90.99
49315;BME280;36672;50.710;12.498;2023-02-03T05:49:22;98869.63;;;4.39;90.54
49315;BME280;36672;50.710;12.498;2023-02-03T05:51:48;98869.81;;;4.38;90.42
49315;BME280;36672;50.710;12.498;2023-02-03T05:54:14;98854.06;;;4.35;90.61
49315;BME280;36672;50.710;12.498;2023-02-03T05:56:40;98857.28;;;4.38;90.57
49315;BME280;36672;50.710;12.498;2023-02-03T05:59:06;98846.81;;;4.27;90.13
49315;BME280;36672;50.710;12.498;2023-02-03T06:01:32;98865.16;;;4.40;90.00
49315;BME280;36672;50.710;12.498;2023-02-03T06:03:58;98858.66;;;4.43;89.75
49315;BME280;36672;50.710;12.498;2023-02-03T06:06:23;98857.50;;;4.45;89.64
49315;BME280;36672;50.710;12.498;2023-02-03T06:08:49;98854.69;;;4.47;90.05
49315;BME280;36672;50.710;12.498;2023-02-03T06:11:16;98840.75;;;4.43;89.45
49315;BME280;36672;50.710;12.498;2023-02-03T06:13:42;98843.81;;;4.48;89.68
49315;BME280;36672;50.710;12.498;2023-02-03T06:16:07;98849.03;;;4.50;89.58
49315;BME280;36672;50.710;12.498;2023-02-03T06:18:32;98837.84;;;4.54;89.33
49315;BME280;36672;50.710;12.498;2023-02-03T06:20:57;98842.81;;;4.49;89.00
49315;BME280;36672;50.710;12.498;2023-02-03T06:23:23;98815.53;;;4.46;89.40
49315;BME280;36672;50.710;12.498;2023-02-03T06:25:49;98811.88;;;4.47;89.04
49315;BME280;36672;50.710;12.498;2023-02-03T06:28:15;98826.84;;;4.57;89.03
49315;BME280;36672;50.710;12.498;2023-02-03T06:30:41;98801.00;;;4.48;89.04
49315;BME280;36672;50.710;12.498;2023-02-03T06:33:07;98821.72;;;4.64;88.86
49315;BME280;36672;50.710;12.498;2023-02-03T06:35:33;98799.41;;;4.55;88.53
49315;BME280;36672;50.710;12.498;2023-02-03T06:37:58;98811.72;;;4.66;88.26
49315;BME280;36672;50.710;12.498;2023-02-03T06:40:23;98813.06;;;4.70;88.55
49315;BME280;36672;50.710;12.498;2023-02-03T06:42:49;98821.81;;;4.72;88.08
49315;BME280;36672;50.710;12.498;2023-02-03T06:45:15;98798.47;;;4.65;87.45
49315;BME280;36672;50.710;12.498;2023-02-03T06:47:43;98799.38;;;4.73;87.81
49315;BME280;36672;50.710;12.498;2023-02-03T06:50:10;98794.50;;;4.69;87.52
49315;BME280;36672;50.710;12.498;2023-02-03T06:52:36;98790.34;;;4.74;87.17
49315;BME280;36672;50.710;12.498;2023-02-03T06:55:03;98788.75;;;4.82;87.21
49315;BME280;36672;50.710;12.498;2023-02-03T06:57:28;98789.72;;;4.81;86.95
49315;BME280;36672;50.710;12.498;2023-02-03T06:59:53;98787.75;;;4.83;87.16
49315;BME280;36672;50.710;12.498;2023-02-03T07:02:19;98779.63;;;4.74;86.59
49315;BME280;36672;50.710;12.498;2023-02-03T07:04:44;98791.94;;;4.85;86.83
49315;BME280;36672;50.710;12.498;2023-02-03T07:07:11;98776.50;;;4.79;86.73
49315;BME280;36672;50.710;12.498;2023-02-03T07:09:37;98771.31;;;4.78;86.64
49315;BME280;36672;50.710;12.498;2023-02-03T07:12:03;98803.56;;;4.94;86.63
49315;BME280;36672;50.710;12.498;2023-02-03T07:14:28;98773.56;;;4.90;86.11
49315;BME280;36672;50.710;12.498;2023-02-03T07:16:55;98781.59;;;4.90;86.47
49315;BME280;36672;50.710;12.498;2023-02-03T07:19:20;98781.28;;;4.94;86.42
49315;BME280;36672;50.710;12.498;2023-02-03T07:21:46;98783.66;;;4.97;86.12
49315;BME280;36672;50.710;12.498;2023-02-03T07:24:11;98772.25;;;4.95;85.93
49315;BME280;36672;50.710;12.498;2023-02-03T07:26:36;98753.94;;;4.82;85.25
49315;BME280;36672;50.710;12.498;2023-02-03T07:29:03;98761.22;;;4.98;85.04
49315;BME280;36672;50.710;12.498;2023-02-03T07:31:28;98757.72;;;4.97;85.36
49315;BME280;36672;50.710;12.498;2023-02-03T07:33:54;98769.16;;;5.07;85.05
49315;BME280;36672;50.710;12.498;2023-02-03T07:36:19;98734.13;;;5.01;84.84
49315;BME280;36672;50.710;12.498;2023-02-03T07:38:44;98743.59;;;5.13;84.53
49315;BME280;36672;50.710;12.498;2023-02-03T07:41:09;98733.50;;;5.07;84.48
49315;BME280;36672;50.710;12.498;2023-02-03T07:43:35;98740.41;;;5.18;84.09
49315;BME280;36672;50.710;12.498;2023-02-03T07:46:00;98737.72;;;5.18;83.71
49315;BME280;36672;50.710;12.498;2023-02-03T07:48:26;98743.09;;;5.18;83.46
49315;BME280;36672;50.710;12.498;2023-02-03T07:50:52;98730.38;;;5.20;83.21
49315;BME280;36672;50.710;12.498;2023-02-03T07:53:17;98731.72;;;5.24;83.49
49315;BME280;36672;50.710;12.498;2023-02-03T07:55:43;98732.59;;;5.25;83.44
49315;BME280;36672;50.710;12.498;2023-02-03T07:58:08;98729.38;;;5.21;83.25
49315;BME280;36672;50.710;12.498;2023-02-03T08:00:34;98736.72;;;5.19;82.95
49315;BME280;36672;50.710;12.498;2023-02-03T08:02:59;98734.09;;;5.27;82.95
49315;BME280;36672;50.710;12.498;2023-02-03T08:05:25;98732.44;;;5.26;82.23
49315;BME280;36672;50.710;12.498;2023-02-03T08:07:50;98710.13;;;5.26;82.25
49315;BME280;36672;50.710;12.498;2023-02-03T08:10:16;98696.56;;;5.19;82.65
49315;BME280;36672;50.710;12.498;2023-02-03T08:12:42;98731.16;;;5.38;82.70
49315;BME280;36672;50.710;12.498;2023-02-03T08:15:09;98728.47;;;5.38;82.36
49315;BME280;36672;50.710;12.498;2023-02-03T08:17:35;98706.00;;;5.31;82.68
49315;BME280;36672;50.710;12.498;2023-02-03T08:20:00;98716.06;;;5.37;82.21
49315;BME280;36672;50.710;12.498;2023-02-03T08:22:26;98696.91;;;5.24;82.29
49315;BME280;36672;50.710;12.498;2023-02-03T08:24:51;98707.38;;;5.44;82.23
49315;BME280;36672;50.710;12.498;2023-02-03T08:27:19;98709.06;;;5.45;82.10
49315;BME280;36672;50.710;12.498;2023-02-03T08:29:45;98704.84;;;5.42;82.22
49315;BME280;36672;50.710;12.498;2023-02-03T08:32:12;98695.81;;;5.43;82.02
49315;BME280;36672;50.710;12.498;2023-02-03T08:34:38;98706.75;;;5.58;82.08
49315;BME280;36672;50.710;12.498;2023-02-03T08:37:04;98711.09;;;5.59;82.07
49315;BME280;36672;50.710;12.498;2023-02-03T08:39:31;98708.59;;;5.58;81.63
49315;BME280;36672;50.710;12.498;2023-02-03T08:41:56;98693.81;;;5.45;81.39
49315;BME280;36672;50.710;12.498;2023-02-03T08:44:21;98713.09;;;5.57;81.59
49315;BME280;36672;50.710;12.498;2023-02-03T08:46:51;98705.75;;;5.59;81.03
49315;BME280;36672;50.710;12.498;2023-02-03T08:49:19;98702.91;;;5.61;81.16
49315;BME280;36672;50.710;12.498;2023-02-03T08:51:46;98693.34;;;5.58;81.50
49315;BME280;36672;50.710;12.498;2023-02-03T08:54:11;98695.03;;;5.67;81.12
49315;BME280;36672;50.710;12.498;2023-02-03T08:56:37;98679.13;;;5.66;81.25
49315;BME280;36672;50.710;12.498;2023-02-03T08:59:02;98672.75;;;5.67;81.11
49315;BME280;36672;50.710;12.498;2023-02-03T09:01:28;98665.53;;;5.67;80.76
49315;BME280;36672;50.710;12.498;2023-02-03T09:03:53;98665.91;;;5.72;80.83
49315;BME280;36672;50.710;12.498;2023-02-03T09:06:19;98671.94;;;5.75;80.10
49315;BME280;36672;50.710;12.498;2023-02-03T09:08:45;98674.31;;;5.78;80.30
49315;BME280;36672;50.710;12.498;2023-02-03T09:11:15;98664.88;;;5.65;79.43
49315;BME280;36672;50.710;12.498;2023-02-03T09:13:41;98681.19;;;5.80;79.64
49315;BME280;36672;50.710;12.498;2023-02-03T09:16:11;98670.09;;;5.83;79.43
49315;BME280;36672;50.710;12.498;2023-02-03T09:18:36;98660.88;;;5.86;79.71
49315;BME280;36672;50.710;12.498;2023-02-03T09:21:07;98655.22;;;5.89;79.25
49315;BME280;36672;50.710;12.498;2023-02-03T09:23:35;98635.59;;;5.80;78.61
49315;BME280;36672;50.710;12.498;2023-02-03T09:26:04;98640.94;;;5.88;78.80
49315;BME280;36672;50.710;12.498;2023-02-03T09:28:30;98629.19;;;5.81;78.90
49315;BME280;36672;50.710;12.498;2023-02-03T09:31:03;98651.56;;;5.98;78.87
49315;BME280;36672;50.710;12.498;2023-02-03T09:33:29;98656.44;;;6.03;78.90
49315;BME280;36672;50.710;12.498;2023-02-03T09:35:55;98639.47;;;6.02;78.72
49315;BME280;36672;50.710;12.498;2023-02-03T09:38:22;98633.94;;;6.04;78.89
49315;BME280;36672;50.710;12.498;2023-02-03T09:40:51;98629.59;;;6.03;78.69
49315;BME280;36672;50.710;12.498;2023-02-03T09:46:21;98628.41;;;6.14;78.71
49315;BME280;36672;50.710;12.498;2023-02-03T09:48:56;98638.47;;;6.12;78.50
49315;BME280;36672;50.710;12.498;2023-02-03T09:51:43;98635.78;;;6.12;78.45
49315;BME280;36672;50.710;12.498;2023-02-03T09:54:20;98626.06;;;6.11;78.35
49315;BME280;36672;50.710;12.498;2023-02-03T09:56:48;98607.78;;;6.06;78.52
49315;BME280;36672;50.710;12.498;2023-02-03T09:59:17;98597.22;;;6.13;78.26
49315;BME280;36672;50.710;12.498;2023-02-03T10:02:13;98581.97;;;6.05;77.26
49315;BME280;36672;50.710;12.498;2023-02-03T10:04:52;98590.53;;;6.17;77.79
49315;BME280;36672;50.710;12.498;2023-02-03T10:13:17;98599.56;;;6.24;77.00
49315;BME280;36672;50.710;12.498;2023-02-03T10:18:35;98587.13;;;6.23;77.06
49315;BME280;36672;50.710;12.498;2023-02-03T10:21:12;98569.41;;;6.22;77.06
49315;BME280;36672;50.710;12.498;2023-02-03T10:23:42;98576.75;;;6.28;77.18
49315;BME280;36672;50.710;12.498;2023-02-03T10:26:19;98595.03;;;6.25;76.48
49315;BME280;36672;50.710;12.498;2023-02-03T10:28:54;98585.13;;;6.25;76.67
49315;BME280;36672;50.710;12.498;2023-02-03T10:31:22;98578.59;;;6.36;76.80
49315;BME280;36672;50.710;12.498;2023-02-03T10:33:58;98569.50;;;6.37;76.54
49315;BME280;36672;50.710;12.498;2023-02-03T10:36:57;98572.72;;;6.32;76.09
49315;BME280;36672;50.710;12.498;2023-02-03T10:42:02;98554.44;;;6.36;76.83
49315;BME280;36672;50.710;12.498;2023-02-03T10:44:33;98552.56;;;6.36;76.88
49315;BME280;36672;50.710;12.498;2023-02-03T10:47:00;98550.72;;;6.37;77.03
49315;BME280;36672;50.710;12.498;2023-02-03T10:49:26;98542.66;;;6.37;77.49
49315;BME280;36672;50.710;12.498;2023-02-03T10:51:54;98537.47;;;6.35;77.89
49315;BME280;36672;50.710;12.498;2023-02-03T10:54:32;98532.78;;;6.29;78.51
49315;BME280;36672;50.710;12.498;2023-02-03T10:57:09;98531.66;;;6.24;78.70
49315;BME280;36672;50.710;12.498;2023-02-03T10:59:36;98515.41;;;6.09;78.43
49315;BME280;36672;50.710;12.498;2023-02-03T11:02:19;98529.66;;;6.17;78.45
49315;BME280;36672;50.710;12.498;2023-02-03T11:04:45;98522.59;;;6.25;78.52
49315;BME280;36672;50.710;12.498;2023-02-03T11:07:23;98502.78;;;6.26;77.99
49315;BME280;36672;50.710;12.498;2023-02-03T11:09:49;98509.50;;;6.30;77.88
49315;BME280;36672;50.710;12.498;2023-02-03T11:12:18;98513.88;;;6.31;78.08
49315;BME280;36672;50.710;12.498;2023-02-03T11:14:45;98511.50;;;6.28;78.49
49315;BME280;36672;50.710;12.498;2023-02-03T11:17:18;98503.50;;;6.19;78.51
49315;BME280;36672;50.710;12.498;2023-02-03T11:19:48;98503.28;;;6.29;78.98
49315;BME280;36672;50.710;12.498;2023-02-03T11:22:30;98498.78;;;6.30;79.21
49315;BME280;36672;50.710;12.498;2023-02-03T11:24:58;98494.59;;;6.19;79.53
49315;BME280;36672;50.710;12.498;2023-02-03T11:27:28;98491.09;;;6.18;80.11
49315;BME280;36672;50.710;12.498;2023-02-03T11:30:19;98505.16;;;6.20;80.17
49315;BME280;36672;50.710;12.498;2023-02-03T11:32:48;98489.72;;;6.23;80.35
49315;BME280;36672;50.710;12.498;2023-02-03T11:37:44;98499.47;;;6.15;80.32
49315;BME280;36672;50.710;12.498;2023-02-03T11:42:38;98496.63;;;6.17;80.46
49315;BME280;36672;50.710;12.498;2023-02-03T11:47:53;98518.91;;;6.17;80.30
49315;BME280;36672;50.710;12.498;2023-02-03T11:50:40;98512.56;;;6.10;80.27
49315;BME280;36672;50.710;12.498;2023-02-03T11:56:38;98505.03;;;6.06;81.06
49315;BME280;36672;50.710;12.498;2023-02-03T12:10:04;98485.59;;;6.03;83.70
49315;BME280;36672;50.710;12.498;2023-02-03T12:26:29;98453.41;;;5.87;87.09
49315;BME280;36672;50.710;12.498;2023-02-03T12:28:58;98456.59;;;5.82;87.08
49315;BME280;36672;50.710;12.498;2023-02-03T12:31:38;98457.28;;;5.76;88.34
49315;BME280;36672;50.710;12.498;2023-02-03T12:34:27;98468.19;;;5.75;88.74
49315;BME280;36672;50.710;12.498;2023-02-03T12:37:03;98457.31;;;5.68;89.29
49315;BME280;36672;50.710;12.498;2023-02-03T12:39:35;98448.59;;;5.66;89.43
49315;BME280;36672;50.710;12.498;2023-02-03T12:42:14;98432.88;;;5.54;89.86
49315;BME280;36672;50.710;12.498;2023-02-03T12:44:51;98442.91;;;5.61;90.04
49315;BME280;36672;50.710;12.498;2023-02-03T12:50:04;98461.69;;;5.69;91.13
49315;BME280;36672;50.710;12.498;2023-02-03T12:52:36;98455.63;;;5.67;91.18
49315;BME280;36672;50.710;12.498;2023-02-03T12:55:27;98454.47;;;5.69;91.70
49315;BME280;36672;50.710;12.498;2023-02-03T12:57:57;98436.38;;;5.71;91.77
49315;BME280;36672;50.710;12.498;2023-02-03T13:00:55;98444.09;;;5.66;92.08
49315;BME280;36672;50.710;12.498;2023-02-03T13:03:30;98436.38;;;5.71;92.34
49315;BME280;36672;50.710;12.498;2023-02-03T13:09:30;98429.16;;;5.72;92.72
49315;BME280;36672;50.710;12.498;2023-02-03T13:12:05;98419.59;;;5.69;92.85
49315;BME280;36672;50.710;12.498;2023-02-03T13:14:41;98404.03;;;5.65;93.05
49315;BME280;36672;50.710;12.498;2023-02-03T13:17:26;98391.47;;;5.65;93.08
49315;BME280;36672;50.710;12.498;2023-02-03T13:20:01;98398.16;;;5.69;93.36
49315;BME280;36672;50.710;12.498;2023-02-03T13:22:28;98396.81;;;5.74;93.00
49315;BME280;36672;50.710;12.498;2023-02-03T13:30:44;98381.22;;;5.77;94.03
49315;BME280;36672;50.710;12.498;2023-02-03T13:44:36;98369.28;;;5.88;93.88
49315;BME280;36672;50.710;12.498;2023-02-03T13:47:02;98396.59;;;6.00;93.95
49315;BME280;36672;50.710;12.498;2023-02-03T13:49:35;98388.88;;;5.97;94.37
49315;BME280;36672;50.710;12.498;2023-02-03T13:52:01;98393.59;;;6.03;94.01
49315;BME280;36672;50.710;12.498;2023-02-03T13:54:32;98437.81;;;6.07;94.03
49315;BME280;36672;50.710;12.498;2023-02-03T13:57:03;98458.72;;;6.12;94.26
49315;BME280;36672;50.710;12.498;2023-02-03T14:02:39;98501.19;;;6.08;94.68
49315;BME280;36672;50.710;12.498;2023-02-03T14:05:08;98457.56;;;5.98;94.27
49315;BME280;36672;50.710;12.498;2023-02-03T14:07:53;98480.22;;;6.03;94.63
49315;BME280;36672;50.710;12.498;2023-02-03T14:10:22;98484.09;;;6.01;95.26
49315;BME280;36672;50.710;12.498;2023-02-03T14:18:05;98489.59;;;5.91;94.42
49315;BME280;36672;50.710;12.498;2023-02-03T14:20:55;98459.97;;;5.76;93.15
49315;BME280;36672;50.710;12.498;2023-02-03T14:23:27;98478.91;;;5.83;91.90
49315;BME280;36672;50.710;12.498;2023-02-03T14:25:56;98486.94;;;5.91;92.24
49315;BME280;36672;50.710;12.498;2023-02-03T14:28:28;98472.00;;;5.88;91.45
49315;BME280;36672;50.710;12.498;2023-02-03T14:31:22;98490.47;;;5.92;90.74
49315;BME280;36672;50.710;12.498;2023-02-03T14:36:30;98489.28;;;5.94;89.67
49315;BME280;36672;50.710;12.498;2023-02-03T14:38:59;98501.00;;;5.85;88.81
49315;BME280;36672;50.710;12.498;2023-02-03T14:41:37;98494.31;;;5.81;86.98
49315;BME280;36672;50.710;12.498;2023-02-03T14:49:27;98531.16;;;5.95;86.80
49315;BME280;36672;50.710;12.498;2023-02-03T14:54:55;98537.53;;;5.86;84.76
49315;BME280;36672;50.710;12.498;2023-02-03T14:57:39;98540.56;;;5.83;84.72
49315;BME280;36672;50.710;12.498;2023-02-03T15:08:37;98566.34;;;5.84;83.19
49315;BME280;36672;50.710;12.498;2023-02-03T15:13:51;98547.44;;;5.77;83.41